sensor_id;sensor_type;location;lat;lon;timestamp;temperature;humidity
2899;DHT22;1459;50.864;6.438;2022-07-12T00:00:35;15.60;99.90
2899;DHT22;1459;50.864;6.438;2022-07-12T00:03:02;15.60;99.90
2899;DHT22;1459;50.864;6.438;2022-07-12T00:05:29;15.50;99.90
2899;DHT22;1459;50.864;6.438;2022-07-12T00:08:00;15.50;99.90
2899;DHT22;1459;50.864;6.438;2022-07-12T00:10:27;15.40;99.90
2899;DHT22;1459;50.864;6.438;2022-07-12T00:12:54;15.40;99.90
2899;DHT22;1459;50.864;6.438;2022-07-12T00:15:21;15.40;99.90
2899;DHT22;1459;50.864;6.438;2022-07-12T00:20:16;15.30;99.90
2899;DHT22;1459;50.864;6.438;2022-07-12T00:22:43;15.20;99.90
2899;DHT22;1459;50.864;6.438;2022-07-12T00:25:13;15.20;99.90
2899;DHT22;1459;50.864;6.438;2022-07-12T00:27:40;15.20;99.90
2899;DHT22;1459;50.864;6.438;2022-07-12T00:30:08;15.20;99.90
2899;DHT22;1459;50.864;6.438;2022-07-12T00:32:35;15.20;99.90
2899;DHT22;1459;50.864;6.438;2022-07-12T00:35:06;15.10;99.90
2899;DHT22;1459;50.864;6.438;2022-07-12T00:37:33;15.10;99.90
2899;DHT22;1459;50.864;6.438;2022-07-12T00:40:00;15.10;99.90
2899;DHT22;1459;50.864;6.438;2022-07-12T00:42:28;15.10;99.90
2899;DHT22;1459;50.864;6.438;2022-07-12T00:44:56;15.10;99.90
2899;DHT22;1459;50.864;6.438;2022-07-12T00:47:31;15.10;99.90
2899;DHT22;1459;50.864;6.438;2022-07-12T00:49:59;15.00;99.90
2899;DHT22;1459;50.864;6.438;2022-07-12T00:52:26;15.00;99.90
2899;DHT22;1459;50.864;6.438;2022-07-12T00:54:53;15.00;99.90
2899;DHT22;1459;50.864;6.438;2022-07-12T00:57:21;14.90;99.90
2899;DHT22;1459;50.864;6.438;2022-07-12T00:59:50;14.90;99.90
2899;DHT22;1459;50.864;6.438;2022-07-12T01:02:17;14.90;99.90
2899;DHT22;1459;50.864;6.438;2022-07-12T01:04:45;14.80;99.90
2899;DHT22;1459;50.864;6.438;2022-07-12T01:09:40;14.70;99.90
2899;DHT22;1459;50.864;6.438;2022-07-12T01:12:09;14.70;99.90
2899;DHT22;1459;50.864;6.438;2022-07-12T01:14:37;14.60;99.90
2899;DHT22;1459;50.864;6.438;2022-07-12T01:17:07;14.60;99.90
2899;DHT22;1459;50.864;6.438;2022-07-12T01:19:36;14.50;99.90
2899;DHT22;1459;50.864;6.438;2022-07-12T01:22:07;14.50;99.90
2899;DHT22;1459;50.864;6.438;2022-07-12T01:24:36;14.40;99.90
2899;DHT22;1459;50.864;6.438;2022-07-12T01:27:04;14.40;99.90
2899;DHT22;1459;50.864;6.438;2022-07-12T01:29:31;14.40;99.90
2899;DHT22;1459;50.864;6.438;2022-07-12T01:32:00;14.30;99.90
2899;DHT22;1459;50.864;6.438;2022-07-12T01:34:49;14.30;99.90
2899;DHT22;1459;50.864;6.438;2022-07-12T01:37:18;14.30;99.90
2899;DHT22;1459;50.864;6.438;2022-07-12T01:39:49;14.20;99.90
2899;DHT22;1459;50.864;6.438;2022-07-12T01:42:16;14.20;99.90
2899;DHT22;1459;50.864;6.438;2022-07-12T01:44:43;14.20;99.90
2899;DHT22;1459;50.864;6.438;2022-07-12T01:47:10;14.20;99.90
2899;DHT22;1459;50.864;6.438;2022-07-12T01:49:37;14.20;99.90
2899;DHT22;1459;50.864;6.438;2022-07-12T01:52:05;14.20;99.90
2899;DHT22;1459;50.864;6.438;2022-07-12T01:54:33;14.10;99.90
2899;DHT22;1459;50.864;6.438;2022-07-12T01:57:03;14.10;99.90
2899;DHT22;1459;50.864;6.438;2022-07-12T01:59:30;14.10;99.90
2899;DHT22;1459;50.864;6.438;2022-07-12T02:01:57;14.10;99.90
2899;DHT22;1459;50.864;6.438;2022-07-12T02:04:25;14.10;99.90
2899;DHT22;1459;50.864;6.438;2022-07-12T02:06:52;14.10;99.90
2899;DHT22;1459;50.864;6.438;2022-07-12T02:09:19;14.00;99.90
2899;DHT22;1459;50.864;6.438;2022-07-12T02:11:46;13.90;99.90
2899;DHT22;1459;50.864;6.438;2022-07-12T02:14:15;13.90;99.90
2899;DHT22;1459;50.864;6.438;2022-07-12T02:16:43;13.90;99.90
2899;DHT22;1459;50.864;6.438;2022-07-12T02:19:10;13.80;99.90
2899;DHT22;1459;50.864;6.438;2022-07-12T02:21:38;13.80;99.90
2899;DHT22;1459;50.864;6.438;2022-07-12T02:24:06;13.80;99.90
2899;DHT22;1459;50.864;6.438;2022-07-12T02:26:33;13.80;99.90
2899;DHT22;1459;50.864;6.438;2022-07-12T02:29:01;13.80;99.90
2899;DHT22;1459;50.864;6.438;2022-07-12T02:31:29;13.70;99.90
2899;DHT22;1459;50.864;6.438;2022-07-12T02:33:56;13.70;99.90
2899;DHT22;1459;50.864;6.438;2022-07-12T02:36:24;13.70;99.90
2899;DHT22;1459;50.864;6.438;2022-07-12T02:38:51;13.70;99.90
2899;DHT22;1459;50.864;6.438;2022-07-12T02:41:18;13.70;99.90
2899;DHT22;1459;50.864;6.438;2022-07-12T02:43:45;13.60;99.90
2899;DHT22;1459;50.864;6.438;2022-07-12T02:46:12;13.60;99.90
2899;DHT22;1459;50.864;6.438;2022-07-12T02:48:41;13.60;99.90
2899;DHT22;1459;50.864;6.438;2022-07-12T02:51:08;13.50;99.90
2899;DHT22;1459;50.864;6.438;2022-07-12T02:53:36;13.50;99.90
2899;DHT22;1459;50.864;6.438;2022-07-12T02:56:06;13.40;99.90
2899;DHT22;1459;50.864;6.438;2022-07-12T02:58:34;13.40;99.90
2899;DHT22;1459;50.864;6.438;2022-07-12T03:01:01;13.30;99.90
2899;DHT22;1459;50.864;6.438;2022-07-12T03:03:28;13.20;99.90
2899;DHT22;1459;50.864;6.438;2022-07-12T03:05:57;13.20;99.90
2899;DHT22;1459;50.864;6.438;2022-07-12T03:08:24;13.20;99.90
2899;DHT22;1459;50.864;6.438;2022-07-12T03:10:51;13.20;99.90
2899;DHT22;1459;50.864;6.438;2022-07-12T03:13:18;13.10;99.90
2899;DHT22;1459;50.864;6.438;2022-07-12T03:15:45;13.20;99.90
2899;DHT22;1459;50.864;6.438;2022-07-12T03:18:12;13.20;99.90
2899;DHT22;1459;50.864;6.438;2022-07-12T03:20:39;13.10;99.90
2899;DHT22;1459;50.864;6.438;2022-07-12T03:23:08;13.20;99.90
2899;DHT22;1459;50.864;6.438;2022-07-12T03:25:35;13.20;99.90
2899;DHT22;1459;50.864;6.438;2022-07-12T03:28:02;13.20;99.90
2899;DHT22;1459;50.864;6.438;2022-07-12T03:30:30;13.20;99.90
2899;DHT22;1459;50.864;6.438;2022-07-12T03:32:57;13.10;99.90
2899;DHT22;1459;50.864;6.438;2022-07-12T03:35:24;13.10;99.90
2899;DHT22;1459;50.864;6.438;2022-07-12T03:37:52;13.10;99.90
2899;DHT22;1459;50.864;6.438;2022-07-12T03:40:21;13.20;99.90
2899;DHT22;1459;50.864;6.438;2022-07-12T03:42:49;13.10;99.90
2899;DHT22;1459;50.864;6.438;2022-07-12T03:45:16;13.10;99.90
2899;DHT22;1459;50.864;6.438;2022-07-12T03:47:44;13.10;99.90
2899;DHT22;1459;50.864;6.438;2022-07-12T03:50:12;13.10;99.90
2899;DHT22;1459;50.864;6.438;2022-07-12T03:52:40;13.10;99.90
2899;DHT22;1459;50.864;6.438;2022-07-12T03:55:08;13.10;99.90
2899;DHT22;1459;50.864;6.438;2022-07-12T03:57:36;13.10;99.90
2899;DHT22;1459;50.864;6.438;2022-07-12T04:00:05;13.10;99.90
2899;DHT22;1459;50.864;6.438;2022-07-12T04:02:34;13.10;99.90
2899;DHT22;1459;50.864;6.438;2022-07-12T04:05:01;13.00;99.90
2899;DHT22;1459;50.864;6.438;2022-07-12T04:07:28;13.00;99.90
2899;DHT22;1459;50.864;6.438;2022-07-12T04:09:55;13.10;99.90
2899;DHT22;1459;50.864;6.438;2022-07-12T04:12:24;13.10;99.90
2899;DHT22;1459;50.864;6.438;2022-07-12T04:14:53;13.10;99.90
2899;DHT22;1459;50.864;6.438;2022-07-12T04:17:20;13.10;99.90
2899;DHT22;1459;50.864;6.438;2022-07-12T04:19:47;13.20;99.90
2899;DHT22;1459;50.864;6.438;2022-07-12T04:22:13;13.20;99.90
2899;DHT22;1459;50.864;6.438;2022-07-12T04:24:41;13.30;99.90
2899;DHT22;1459;50.864;6.438;2022-07-12T04:27:08;13.30;99.90
2899;DHT22;1459;50.864;6.438;2022-07-12T04:29:35;13.30;99.90
2899;DHT22;1459;50.864;6.438;2022-07-12T04:32:03;13.40;99.90
2899;DHT22;1459;50.864;6.438;2022-07-12T04:34:30;13.40;99.90
2899;DHT22;1459;50.864;6.438;2022-07-12T04:36:57;13.40;99.90
2899;DHT22;1459;50.864;6.438;2022-07-12T04:39:24;13.50;99.90
2899;DHT22;1459;50.864;6.438;2022-07-12T04:41:51;13.50;99.90
2899;DHT22;1459;50.864;6.438;2022-07-12T04:44:18;13.50;99.90
2899;DHT22;1459;50.864;6.438;2022-07-12T04:46:45;13.60;99.90
2899;DHT22;1459;50.864;6.438;2022-07-12T04:49:14;13.60;99.90
2899;DHT22;1459;50.864;6.438;2022-07-12T04:51:41;13.70;99.90
2899;DHT22;1459;50.864;6.438;2022-07-12T04:54:08;13.70;99.90
2899;DHT22;1459;50.864;6.438;2022-07-12T04:56:35;13.80;99.90
2899;DHT22;1459;50.864;6.438;2022-07-12T04:59:03;13.90;99.90
2899;DHT22;1459;50.864;6.438;2022-07-12T05:01:30;14.00;99.90
2899;DHT22;1459;50.864;6.438;2022-07-12T05:03:57;14.10;99.90
2899;DHT22;1459;50.864;6.438;2022-07-12T05:06:26;14.20;99.90
2899;DHT22;1459;50.864;6.438;2022-07-12T05:08:53;14.30;99.90
2899;DHT22;1459;50.864;6.438;2022-07-12T05:11:21;14.40;99.90
2899;DHT22;1459;50.864;6.438;2022-07-12T05:13:48;14.60;99.90
2899;DHT22;1459;50.864;6.438;2022-07-12T05:16:16;14.70;99.90
2899;DHT22;1459;50.864;6.438;2022-07-12T05:18:43;14.90;99.90
2899;DHT22;1459;50.864;6.438;2022-07-12T05:21:10;15.00;99.90
2899;DHT22;1459;50.864;6.438;2022-07-12T05:23:39;15.20;99.90
2899;DHT22;1459;50.864;6.438;2022-07-12T05:26:06;15.30;99.90
2899;DHT22;1459;50.864;6.438;2022-07-12T05:28:33;15.50;99.90
2899;DHT22;1459;50.864;6.438;2022-07-12T05:30:59;15.60;99.90
2899;DHT22;1459;50.864;6.438;2022-07-12T05:33:26;15.80;99.90
2899;DHT22;1459;50.864;6.438;2022-07-12T05:35:54;15.90;99.90
2899;DHT22;1459;50.864;6.438;2022-07-12T05:40:50;16.20;99.90
2899;DHT22;1459;50.864;6.438;2022-07-12T05:43:17;16.40;99.90
2899;DHT22;1459;50.864;6.438;2022-07-12T05:45:44;16.50;99.90
2899;DHT22;1459;50.864;6.438;2022-07-12T05:48:11;16.60;99.90
2899;DHT22;1459;50.864;6.438;2022-07-12T05:50:39;16.70;99.90
2899;DHT22;1459;50.864;6.438;2022-07-12T05:53:05;16.80;99.90
2899;DHT22;1459;50.864;6.438;2022-07-12T05:55:52;16.90;99.90
2899;DHT22;1459;50.864;6.438;2022-07-12T05:58:20;17.10;99.90
2899;DHT22;1459;50.864;6.438;2022-07-12T06:00:48;17.20;99.90
2899;DHT22;1459;50.864;6.438;2022-07-12T06:03:15;17.30;99.90
2899;DHT22;1459;50.864;6.438;2022-07-12T06:05:42;17.40;99.90
2899;DHT22;1459;50.864;6.438;2022-07-12T06:08:09;17.50;99.90
2899;DHT22;1459;50.864;6.438;2022-07-12T06:10:36;17.60;99.90
2899;DHT22;1459;50.864;6.438;2022-07-12T06:13:07;17.70;99.90
2899;DHT22;1459;50.864;6.438;2022-07-12T06:15:35;17.90;99.90
2899;DHT22;1459;50.864;6.438;2022-07-12T06:18:03;18.00;99.90
2899;DHT22;1459;50.864;6.438;2022-07-12T06:20:30;18.10;99.90
2899;DHT22;1459;50.864;6.438;2022-07-12T06:22:57;18.30;99.90
2899;DHT22;1459;50.864;6.438;2022-07-12T06:25:24;18.40;99.90
2899;DHT22;1459;50.864;6.438;2022-07-12T06:27:51;18.40;99.90
2899;DHT22;1459;50.864;6.438;2022-07-12T06:30:21;18.60;99.90
2899;DHT22;1459;50.864;6.438;2022-07-12T06:32:48;18.70;99.90
2899;DHT22;1459;50.864;6.438;2022-07-12T06:35:15;18.90;99.90
2899;DHT22;1459;50.864;6.438;2022-07-12T06:37:42;19.10;99.90
2899;DHT22;1459;50.864;6.438;2022-07-12T06:40:11;19.30;99.90
2899;DHT22;1459;50.864;6.438;2022-07-12T06:42:40;19.40;99.90
2899;DHT22;1459;50.864;6.438;2022-07-12T06:45:09;19.50;99.90
2899;DHT22;1459;50.864;6.438;2022-07-12T06:47:37;19.70;99.90
2899;DHT22;1459;50.864;6.438;2022-07-12T06:50:05;19.80;99.90
2899;DHT22;1459;50.864;6.438;2022-07-12T06:52:32;19.90;99.90
2899;DHT22;1459;50.864;6.438;2022-07-12T06:57:27;20.10;99.90
2899;DHT22;1459;50.864;6.438;2022-07-12T06:59:55;20.30;99.90
2899;DHT22;1459;50.864;6.438;2022-07-12T07:02:22;20.40;99.90
2899;DHT22;1459;50.864;6.438;2022-07-12T07:04:51;20.50;99.90
2899;DHT22;1459;50.864;6.438;2022-07-12T07:07:18;20.70;99.90
2899;DHT22;1459;50.864;6.438;2022-07-12T07:09:45;20.80;99.90
2899;DHT22;1459;50.864;6.438;2022-07-12T07:12:13;20.80;99.90
2899;DHT22;1459;50.864;6.438;2022-07-12T07:14:40;20.90;99.90
2899;DHT22;1459;50.864;6.438;2022-07-12T07:19:36;21.00;99.90
2899;DHT22;1459;50.864;6.438;2022-07-12T07:22:07;21.10;99.90
2899;DHT22;1459;50.864;6.438;2022-07-12T07:24:35;21.20;99.90
2899;DHT22;1459;50.864;6.438;2022-07-12T07:27:02;21.30;99.90
2899;DHT22;1459;50.864;6.438;2022-07-12T07:29:30;21.40;99.90
2899;DHT22;1459;50.864;6.438;2022-07-12T07:32:14;21.60;99.90
2899;DHT22;1459;50.864;6.438;2022-07-12T07:34:41;21.70;99.90
2899;DHT22;1459;50.864;6.438;2022-07-12T07:37:09;21.70;99.90
2899;DHT22;1459;50.864;6.438;2022-07-12T07:39:36;21.70;99.90
2899;DHT22;1459;50.864;6.438;2022-07-12T07:42:04;21.80;99.90
2899;DHT22;1459;50.864;6.438;2022-07-12T07:44:34;21.80;99.90
2899;DHT22;1459;50.864;6.438;2022-07-12T07:47:01;21.90;99.90
2899;DHT22;1459;50.864;6.438;2022-07-12T07:49:29;22.00;99.90
2899;DHT22;1459;50.864;6.438;2022-07-12T07:51:56;22.00;99.90
2899;DHT22;1459;50.864;6.438;2022-07-12T07:54:24;22.10;99.90
2899;DHT22;1459;50.864;6.438;2022-07-12T07:56:52;22.10;99.90
2899;DHT22;1459;50.864;6.438;2022-07-12T07:59:19;22.20;99.90
2899;DHT22;1459;50.864;6.438;2022-07-12T08:01:48;22.20;99.90
2899;DHT22;1459;50.864;6.438;2022-07-12T08:04:20;22.20;99.90
2899;DHT22;1459;50.864;6.438;2022-07-12T08:06:51;22.20;99.90
2899;DHT22;1459;50.864;6.438;2022-07-12T08:09:18;22.20;99.90
2899;DHT22;1459;50.864;6.438;2022-07-12T08:11:47;22.20;99.90
2899;DHT22;1459;50.864;6.438;2022-07-12T08:14:14;22.30;99.90
2899;DHT22;1459;50.864;6.438;2022-07-12T08:16:41;22.30;99.90
2899;DHT22;1459;50.864;6.438;2022-07-12T08:19:08;22.30;99.90
2899;DHT22;1459;50.864;6.438;2022-07-12T08:21:35;22.30;99.90
2899;DHT22;1459;50.864;6.438;2022-07-12T08:24:02;22.40;99.90
2899;DHT22;1459;50.864;6.438;2022-07-12T08:26:29;22.40;99.90
2899;DHT22;1459;50.864;6.438;2022-07-12T08:28:58;22.50;99.90
2899;DHT22;1459;50.864;6.438;2022-07-12T08:31:25;22.50;99.90
2899;DHT22;1459;50.864;6.438;2022-07-12T08:33:52;22.60;99.90
2899;DHT22;1459;50.864;6.438;2022-07-12T08:38:46;22.90;99.90
2899;DHT22;1459;50.864;6.438;2022-07-12T08:41:14;22.90;99.90
2899;DHT22;1459;50.864;6.438;2022-07-12T08:43:41;23.00;99.90
2899;DHT22;1459;50.864;6.438;2022-07-12T08:46:12;23.20;99.90
2899;DHT22;1459;50.864;6.438;2022-07-12T08:48:40;23.20;99.90
2899;DHT22;1459;50.864;6.438;2022-07-12T08:51:09;23.20;99.90
2899;DHT22;1459;50.864;6.438;2022-07-12T08:53:37;23.30;99.90
2899;DHT22;1459;50.864;6.438;2022-07-12T08:56:05;23.40;99.90
2899;DHT22;1459;50.864;6.438;2022-07-12T08:58:32;23.50;99.90
2899;DHT22;1459;50.864;6.438;2022-07-12T09:00:59;23.60;99.90
2899;DHT22;1459;50.864;6.438;2022-07-12T09:03:28;23.70;99.90
2899;DHT22;1459;50.864;6.438;2022-07-12T09:05:56;23.80;99.90
2899;DHT22;1459;50.864;6.438;2022-07-12T09:08:28;23.90;99.90
2899;DHT22;1459;50.864;6.438;2022-07-12T09:10:58;23.90;99.90
2899;DHT22;1459;50.864;6.438;2022-07-12T09:13:45;24.00;99.90
2899;DHT22;1459;50.864;6.438;2022-07-12T09:16:13;24.10;99.90
2899;DHT22;1459;50.864;6.438;2022-07-12T09:18:43;24.20;99.90
2899;DHT22;1459;50.864;6.438;2022-07-12T09:21:20;24.20;99.90
2899;DHT22;1459;50.864;6.438;2022-07-12T09:23:52;24.40;99.90
2899;DHT22;1459;50.864;6.438;2022-07-12T09:26:19;24.50;99.90
2899;DHT22;1459;50.864;6.438;2022-07-12T09:28:48;24.70;99.90
2899;DHT22;1459;50.864;6.438;2022-07-12T09:31:16;24.80;99.90
2899;DHT22;1459;50.864;6.438;2022-07-12T09:34:02;24.90;99.90
2899;DHT22;1459;50.864;6.438;2022-07-12T09:36:57;24.90;99.90
2899;DHT22;1459;50.864;6.438;2022-07-12T09:39:24;24.90;99.90
2899;DHT22;1459;50.864;6.438;2022-07-12T09:41:54;24.90;99.90
2899;DHT22;1459;50.864;6.438;2022-07-12T09:44:24;24.90;99.90
2899;DHT22;1459;50.864;6.438;2022-07-12T09:46:52;24.90;99.90
2899;DHT22;1459;50.864;6.438;2022-07-12T09:49:22;24.90;99.90
2899;DHT22;1459;50.864;6.438;2022-07-12T09:51:54;24.90;99.90
2899;DHT22;1459;50.864;6.438;2022-07-12T09:54:25;24.90;99.90
2899;DHT22;1459;50.864;6.438;2022-07-12T09:56:53;24.90;99.90
2899;DHT22;1459;50.864;6.438;2022-07-12T09:59:23;24.90;99.90
2899;DHT22;1459;50.864;6.438;2022-07-12T10:01:50;25.00;99.90
2899;DHT22;1459;50.864;6.438;2022-07-12T10:04:22;25.10;99.90
2899;DHT22;1459;50.864;6.438;2022-07-12T10:06:50;25.20;99.90
2899;DHT22;1459;50.864;6.438;2022-07-12T10:09:18;25.20;99.90
2899;DHT22;1459;50.864;6.438;2022-07-12T10:11:45;25.10;99.90
2899;DHT22;1459;50.864;6.438;2022-07-12T10:14:13;25.10;99.90
2899;DHT22;1459;50.864;6.438;2022-07-12T10:16:42;25.10;99.90
2899;DHT22;1459;50.864;6.438;2022-07-12T10:19:27;25.20;99.90
2899;DHT22;1459;50.864;6.438;2022-07-12T10:21:56;25.10;99.90
2899;DHT22;1459;50.864;6.438;2022-07-12T10:24:49;25.20;99.90
2899;DHT22;1459;50.864;6.438;2022-07-12T10:27:31;25.20;99.90
2899;DHT22;1459;50.864;6.438;2022-07-12T10:30:17;25.30;99.90
2899;DHT22;1459;50.864;6.438;2022-07-12T10:32:45;25.20;99.90
2899;DHT22;1459;50.864;6.438;2022-07-12T10:35:16;25.30;99.90
2899;DHT22;1459;50.864;6.438;2022-07-12T10:38:21;25.20;99.90
2899;DHT22;1459;50.864;6.438;2022-07-12T10:40:52;25.30;99.90
2899;DHT22;1459;50.864;6.438;2022-07-12T10:43:22;25.20;99.90
2899;DHT22;1459;50.864;6.438;2022-07-12T10:46:22;25.30;99.90
2899;DHT22;1459;50.864;6.438;2022-07-12T10:48:51;25.30;99.90
2899;DHT22;1459;50.864;6.438;2022-07-12T10:51:40;25.30;99.90
2899;DHT22;1459;50.864;6.438;2022-07-12T10:54:27;25.30;99.90
2899;DHT22;1459;50.864;6.438;2022-07-12T10:56:57;25.30;99.90
2899;DHT22;1459;50.864;6.438;2022-07-12T10:59:26;25.40;99.90
2899;DHT22;1459;50.864;6.438;2022-07-12T11:01:55;25.50;99.90
2899;DHT22;1459;50.864;6.438;2022-07-12T11:04:22;25.60;99.90
2899;DHT22;1459;50.864;6.438;2022-07-12T11:06:53;25.60;99.90
2899;DHT22;1459;50.864;6.438;2022-07-12T11:09:23;25.70;99.90
2899;DHT22;1459;50.864;6.438;2022-07-12T11:11:51;25.80;99.90
2899;DHT22;1459;50.864;6.438;2022-07-12T11:14:22;25.90;99.90
2899;DHT22;1459;50.864;6.438;2022-07-12T11:16:50;25.90;99.90
2899;DHT22;1459;50.864;6.438;2022-07-12T11:19:21;26.00;99.90
2899;DHT22;1459;50.864;6.438;2022-07-12T11:21:51;26.10;99.90
2899;DHT22;1459;50.864;6.438;2022-07-12T11:24:22;26.10;99.90
2899;DHT22;1459;50.864;6.438;2022-07-12T11:26:50;26.20;99.90
2899;DHT22;1459;50.864;6.438;2022-07-12T11:29:18;26.20;99.90
2899;DHT22;1459;50.864;6.438;2022-07-12T11:31:45;26.30;99.90
2899;DHT22;1459;50.864;6.438;2022-07-12T11:34:22;26.30;99.80
2899;DHT22;1459;50.864;6.438;2022-07-12T11:36:54;26.30;99.40
2899;DHT22;1459;50.864;6.438;2022-07-12T11:39:32;26.40;98.70
2899;DHT22;1459;50.864;6.438;2022-07-12T11:41:59;26.40;98.60
2899;DHT22;1459;50.864;6.438;2022-07-12T11:44:42;26.50;97.90
2899;DHT22;1459;50.864;6.438;2022-07-12T11:47:10;26.60;98.20
2899;DHT22;1459;50.864;6.438;2022-07-12T11:49:42;26.60;98.10
2899;DHT22;1459;50.864;6.438;2022-07-12T11:52:13;26.70;98.30
2899;DHT22;1459;50.864;6.438;2022-07-12T11:54:40;26.80;98.70
2899;DHT22;1459;50.864;6.438;2022-07-12T11:57:08;27.00;98.50
2899;DHT22;1459;50.864;6.438;2022-07-12T11:59:35;27.10;98.40
2899;DHT22;1459;50.864;6.438;2022-07-12T12:02:05;27.20;97.80
2899;DHT22;1459;50.864;6.438;2022-07-12T12:04:44;27.30;97.00
2899;DHT22;1459;50.864;6.438;2022-07-12T12:07:13;27.40;97.10
2899;DHT22;1459;50.864;6.438;2022-07-12T12:12:38;27.50;96.10
2899;DHT22;1459;50.864;6.438;2022-07-12T12:15:09;27.80;96.60
2899;DHT22;1459;50.864;6.438;2022-07-12T12:20:11;28.20;94.20
2899;DHT22;1459;50.864;6.438;2022-07-12T12:22:43;28.30;92.50
2899;DHT22;1459;50.864;6.438;2022-07-12T12:25:11;28.60;93.60
2899;DHT22;1459;50.864;6.438;2022-07-12T12:27:42;28.80;93.10
2899;DHT22;1459;50.864;6.438;2022-07-12T12:30:10;28.90;91.10
2899;DHT22;1459;50.864;6.438;2022-07-12T12:32:48;29.00;90.60
2899;DHT22;1459;50.864;6.438;2022-07-12T12:35:16;29.10;90.90
2899;DHT22;1459;50.864;6.438;2022-07-12T12:37:52;29.20;90.90
2899;DHT22;1459;50.864;6.438;2022-07-12T12:40:21;29.10;91.50
2899;DHT22;1459;50.864;6.438;2022-07-12T12:42:49;29.20;91.40
2899;DHT22;1459;50.864;6.438;2022-07-12T12:45:20;29.20;91.10
2899;DHT22;1459;50.864;6.438;2022-07-12T12:47:55;29.40;91.20
2899;DHT22;1459;50.864;6.438;2022-07-12T12:50:43;29.40;91.70
2899;DHT22;1459;50.864;6.438;2022-07-12T12:53:14;29.50;90.30
2899;DHT22;1459;50.864;6.438;2022-07-12T12:55:42;29.50;90.00
2899;DHT22;1459;50.864;6.438;2022-07-12T12:58:10;29.60;89.60
2899;DHT22;1459;50.864;6.438;2022-07-12T13:00:41;29.60;90.20
2899;DHT22;1459;50.864;6.438;2022-07-12T13:03:10;29.60;90.00
2899;DHT22;1459;50.864;6.438;2022-07-12T13:05:38;29.60;87.20
2899;DHT22;1459;50.864;6.438;2022-07-12T13:08:07;29.60;84.90
2899;DHT22;1459;50.864;6.438;2022-07-12T13:10:36;29.70;85.90
2899;DHT22;1459;50.864;6.438;2022-07-12T13:13:04;29.80;85.10
2899;DHT22;1459;50.864;6.438;2022-07-12T13:18:00;30.10;85.40
2899;DHT22;1459;50.864;6.438;2022-07-12T13:20:28;30.20;84.20
2899;DHT22;1459;50.864;6.438;2022-07-12T13:22:55;30.30;83.10
2899;DHT22;1459;50.864;6.438;2022-07-12T13:25:23;30.40;80.10
2899;DHT22;1459;50.864;6.438;2022-07-12T13:27:52;30.50;80.70
2899;DHT22;1459;50.864;6.438;2022-07-12T13:30:19;30.50;80.20
2899;DHT22;1459;50.864;6.438;2022-07-12T13:32:47;30.50;76.80
2899;DHT22;1459;50.864;6.438;2022-07-12T13:35:14;30.50;74.40
2899;DHT22;1459;50.864;6.438;2022-07-12T13:37:43;30.60;76.40
2899;DHT22;1459;50.864;6.438;2022-07-12T13:40:10;30.80;77.80
2899;DHT22;1459;50.864;6.438;2022-07-12T13:42:36;30.90;76.00
2899;DHT22;1459;50.864;6.438;2022-07-12T13:45:05;30.90;74.20
2899;DHT22;1459;50.864;6.438;2022-07-12T13:47:33;31.10;75.50
2899;DHT22;1459;50.864;6.438;2022-07-12T13:50:00;31.30;74.10
2899;DHT22;1459;50.864;6.438;2022-07-12T13:52:27;31.50;73.70
2899;DHT22;1459;50.864;6.438;2022-07-12T13:54:54;31.60;68.90
2899;DHT22;1459;50.864;6.438;2022-07-12T13:57:21;31.80;64.40
2899;DHT22;1459;50.864;6.438;2022-07-12T14:02:16;32.30;64.30
2899;DHT22;1459;50.864;6.438;2022-07-12T14:04:43;32.50;65.20
2899;DHT22;1459;50.864;6.438;2022-07-12T14:07:10;32.50;62.70
2899;DHT22;1459;50.864;6.438;2022-07-12T14:09:37;32.60;64.10
2899;DHT22;1459;50.864;6.438;2022-07-12T14:12:05;32.50;61.80
2899;DHT22;1459;50.864;6.438;2022-07-12T14:14:34;32.40;62.00
2899;DHT22;1459;50.864;6.438;2022-07-12T14:17:34;32.40;59.40
2899;DHT22;1459;50.864;6.438;2022-07-12T14:20:02;32.40;60.00
2899;DHT22;1459;50.864;6.438;2022-07-12T14:22:29;32.40;60.70
2899;DHT22;1459;50.864;6.438;2022-07-12T14:24:56;32.50;59.50
2899;DHT22;1459;50.864;6.438;2022-07-12T14:27:23;32.70;59.10
2899;DHT22;1459;50.864;6.438;2022-07-12T14:34:46;34.70;56.50
2899;DHT22;1459;50.864;6.438;2022-07-12T14:44:37;34.90;56.80
2899;DHT22;1459;50.864;6.438;2022-07-12T14:47:04;41.60;45.30
2899;DHT22;1459;50.864;6.438;2022-07-12T14:49:31;41.90;39.80
2899;DHT22;1459;50.864;6.438;2022-07-12T14:52:05;42.00;38.10
2899;DHT22;1459;50.864;6.438;2022-07-12T14:54:35;42.20;37.70
2899;DHT22;1459;50.864;6.438;2022-07-12T14:57:04;42.00;36.10
2899;DHT22;1459;50.864;6.438;2022-07-12T14:59:31;41.60;36.70
2899;DHT22;1459;50.864;6.438;2022-07-12T15:01:59;41.10;36.40
2899;DHT22;1459;50.864;6.438;2022-07-12T15:04:26;40.50;35.10
2899;DHT22;1459;50.864;6.438;2022-07-12T15:06:53;39.90;35.90
2899;DHT22;1459;50.864;6.438;2022-07-12T15:09:21;39.40;36.30
2899;DHT22;1459;50.864;6.438;2022-07-12T15:11:48;39.10;36.50
2899;DHT22;1459;50.864;6.438;2022-07-12T15:14:15;39.00;36.50
2899;DHT22;1459;50.864;6.438;2022-07-12T15:16:43;39.10;36.50
2899;DHT22;1459;50.864;6.438;2022-07-12T15:19:10;39.20;36.30
2899;DHT22;1459;50.864;6.438;2022-07-12T15:21:37;39.60;35.40
2899;DHT22;1459;50.864;6.438;2022-07-12T15:24:04;40.20;35.30
2899;DHT22;1459;50.864;6.438;2022-07-12T15:26:32;41.10;34.80
2899;DHT22;1459;50.864;6.438;2022-07-12T15:38:51;44.30;32.20
2899;DHT22;1459;50.864;6.438;2022-07-12T15:41:19;44.70;30.80
2899;DHT22;1459;50.864;6.438;2022-07-12T15:43:48;43.90;30.50
2899;DHT22;1459;50.864;6.438;2022-07-12T15:46:15;42.90;31.10
2899;DHT22;1459;50.864;6.438;2022-07-12T15:48:42;41.90;31.50
2899;DHT22;1459;50.864;6.438;2022-07-12T15:51:09;40.80;32.20
2899;DHT22;1459;50.864;6.438;2022-07-12T15:53:36;39.90;33.10
2899;DHT22;1459;50.864;6.438;2022-07-12T15:56:06;39.10;33.50
2899;DHT22;1459;50.864;6.438;2022-07-12T15:58:35;38.20;34.60
2899;DHT22;1459;50.864;6.438;2022-07-12T16:01:05;37.60;39.30
2899;DHT22;1459;50.864;6.438;2022-07-12T16:03:33;37.10;36.10
2899;DHT22;1459;50.864;6.438;2022-07-12T16:06:02;36.60;36.20
2899;DHT22;1459;50.864;6.438;2022-07-12T16:08:31;36.20;37.00
2899;DHT22;1459;50.864;6.438;2022-07-12T16:11:00;35.80;37.70
2899;DHT22;1459;50.864;6.438;2022-07-12T16:13:27;35.60;38.30
2899;DHT22;1459;50.864;6.438;2022-07-12T16:15:58;35.50;39.20
2899;DHT22;1459;50.864;6.438;2022-07-12T16:18:26;35.30;39.90
2899;DHT22;1459;50.864;6.438;2022-07-12T16:20:55;35.30;39.90
